Time;durP1;ratioP1;P1;durP2;ratioP2;P2;SDS_P1;SDS_P2;PMS_P1;PMS_P2;Temp;Humidity;BMP_temperature;BMP_pressure;BME280_temperature;BME280_humidity;BME280_pressure;Samples;Min_cycle;Max_cycle;Signal;HPM_P1;HPM_P2
2022/12/23 00:00:37;;;;;;;2.65;0.73;;;;;;;10.90;100.00;99403.44;8285372;28;20399;-50
2022/12/23 00:04:37;;;;;;;4.18;0.80;;;;;;;10.94;100.00;99410.19;8263024;28;20050;-54
2022/12/23 00:08:39;;;;;;;0.98;0.68;;;;;;;10.98;100.00;99414.25;8294342;28;20049;-51
2022/12/23 00:17:00;;;;;;;1.58;0.77;;;;;;;10.89;100.00;99407.97;8293155;28;20063;-51
2022/12/23 00:21:03;;;;;;;2.90;0.80;;;;;;;10.78;100.00;99416.44;8262177;28;20081;-55
2022/12/23 00:25:04;;;;;;;2.25;0.60;;;;;;;10.66;100.00;99423.19;8243951;28;20606;-52
2022/12/23 00:29:05;;;;;;;2.72;0.50;;;;;;;10.68;100.00;99426.59;8278419;28;20453;-51
2022/12/23 00:33:06;;;;;;;2.97;0.82;;;;;;;10.69;100.00;99441.78;8293828;28;20034;-51
2022/12/23 00:37:06;;;;;;;3.97;1.20;;;;;;;10.67;100.00;99445.69;8308637;28;20038;-54
2022/12/23 00:45:34;;;;;;;0.93;0.63;;;;;;;10.82;100.00;99434.00;8290307;28;20045;-51
2022/12/23 00:49:41;;;;;;;3.40;0.70;;;;;;;10.91;100.00;99433.00;8289619;28;20527;-51
2022/12/23 00:53:42;;;;;;;3.38;0.70;;;;;;;11.01;100.00;99428.25;8285442;28;20385;-52
2022/12/23 00:57:42;;;;;;;2.10;0.98;;;;;;;11.02;100.00;99440.78;8265088;28;20046;-51
2022/12/23 01:06:04;;;;;;;2.20;0.77;;;;;;;11.09;100.00;99452.59;8291093;28;20050;-51
2022/12/23 01:10:05;;;;;;;2.15;0.70;;;;;;;11.06;100.00;99452.94;8292943;28;20115;-51
2022/12/23 01:14:08;;;;;;;2.28;0.85;;;;;;;11.08;100.00;99458.19;8293006;28;20034;-55
2022/12/23 01:18:08;;;;;;;2.75;0.80;;;;;;;11.05;100.00;99464.78;8286960;28;20073;-53
2022/12/23 01:22:09;;;;;;;3.15;1.20;;;;;;;11.01;100.00;99476.94;8288509;28;20407;-54
2022/12/23 01:26:10;;;;;;;3.53;1.00;;;;;;;11.04;100.00;99479.31;8259588;28;20038;-52
2022/12/23 01:30:10;;;;;;;3.90;1.70;;;;;;;11.01;100.00;99482.34;8283246;28;20494;-52
2022/12/23 01:34:11;;;;;;;4.93;1.52;;;;;;;11.00;100.00;99488.78;8291265;28;20041;-51
2022/12/23 01:38:11;;;;;;;4.88;1.88;;;;;;;11.04;100.00;99498.22;8291481;28;20056;-52
2022/12/23 01:42:45;;;;;;;7.15;2.72;;;;;;;11.07;100.00;99508.72;8291843;28;20411;-54
2022/12/23 01:46:34;;;;;;;7.30;2.88;;;;;;;11.05;100.00;99499.94;8290422;28;20057;-54
2022/12/23 01:50:39;;;;;;;7.03;3.22;;;;;;;11.10;100.00;99504.84;8290782;28;20065;-52
2022/12/23 01:54:41;;;;;;;7.55;3.65;;;;;;;11.12;100.00;99517.19;8287685;28;20045;-52
2022/12/23 01:58:49;;;;;;;8.95;3.95;;;;;;;11.16;100.00;99507.72;8288178;28;20048;-53
2022/12/23 02:03:51;;;;;;;12.10;4.35;;;;;;;11.15;100.00;99505.16;8275960;28;20121;-52
2022/12/23 02:11:52;;;;;;;6.72;4.32;;;;;;;11.25;100.00;99503.13;8290734;28;20033;-52
2022/12/23 02:16:17;;;;;;;7.35;4.22;;;;;;;11.27;100.00;99506.53;8290667;28;20053;-51
2022/12/23 02:20:58;;;;;;;8.82;4.93;;;;;;;11.30;100.00;99509.75;8290429;28;20034;-54
2022/12/23 02:25:23;;;;;;;9.73;5.05;;;;;;;11.30;100.00;99528.69;8289670;28;20043;-52
2022/12/23 02:29:54;;;;;;;14.30;5.78;;;;;;;11.38;100.00;99528.66;8289298;28;20037;-51
2022/12/23 02:38:13;;;;;;;11.73;5.00;;;;;;;11.49;100.00;99541.88;8353756;27;20404;-51
2022/12/23 02:42:16;;;;;;;10.73;4.80;;;;;;;11.53;100.00;99532.38;8339455;28;20495;-50
2022/12/23 02:50:37;;;;;;;12.05;4.80;;;;;;;11.54;100.00;99550.34;8363528;27;20444;-50
2022/12/23 02:54:45;;;;;;;5.85;3.35;;;;;;;11.58;100.00;99545.41;8351397;28;20066;-51
2022/12/23 02:58:53;;;;;;;8.23;3.78;;;;;;;11.56;100.00;99545.56;8350919;28;20120;-52
2022/12/23 03:02:53;;;;;;;6.35;3.10;;;;;;;11.57;100.00;99555.41;8350860;28;20159;-53
2022/12/23 03:06:56;;;;;;;5.82;2.33;;;;;;;11.67;100.00;99585.88;8332819;28;20033;-50
2022/12/23 03:11:07;;;;;;;9.77;2.88;;;;;;;11.69;100.00;99589.25;8340885;28;20151;-51
2022/12/23 03:15:24;;;;;;;7.63;2.42;;;;;;;11.69;100.00;99597.38;8307786;28;20045;-52
2022/12/23 03:19:55;;;;;;;7.25;1.88;;;;;;;11.67;100.00;99588.59;8317460;28;20038;-53
2022/12/23 03:24:10;;;;;;;9.50;1.95;;;;;;;11.68;100.00;99601.09;8411375;28;20115;-50
2022/12/23 03:28:39;;;;;;;5.20;1.50;;;;;;;11.69;100.00;99597.38;8376424;28;20509;-54
2022/12/23 03:32:46;;;;;;;7.95;1.83;;;;;;;11.66;100.00;99603.16;8327384;28;20046;-51
2022/12/23 03:36:51;;;;;;;5.25;1.23;;;;;;;11.65;100.00;99606.84;8317149;28;20427;-52
2022/12/23 03:40:58;;;;;;;5.18;1.50;;;;;;;11.71;100.00;99611.59;8316771;28;20132;-53
2022/12/23 03:45:02;;;;;;;5.07;1.52;;;;;;;11.70;100.00;99612.63;8315780;28;20608;-52
2022/12/23 03:49:10;;;;;;;6.10;1.52;;;;;;;11.64;100.00;99607.88;8316393;28;20428;-51
2022/12/23 03:53:17;;;;;;;6.45;1.70;;;;;;;11.53;100.00;99608.16;8317156;28;20053;-51
2022/12/23 03:57:22;;;;;;;7.30;2.88;;;;;;;11.50;100.00;99600.38;8318415;28;20030;-53
2022/12/23 04:01:40;;;;;;;4.57;1.90;;;;;;;11.43;100.00;99596.66;8330972;28;20045;-50
2022/12/23 04:05:48;;;;;;;6.47;1.73;;;;;;;11.35;100.00;99593.94;8327003;28;20045;-51
2022/12/23 04:09:52;;;;;;;6.47;1.70;;;;;;;11.25;100.00;99584.28;8358591;28;20041;-54
2022/12/23 04:13:52;;;;;;;7.95;1.77;;;;;;;11.16;100.00;99582.63;8359613;28;20068;-52
2022/12/23 04:17:55;;;;;;;4.00;2.10;;;;;;;11.02;100.00;99586.81;8359579;28;20604;-53
2022/12/23 04:21:57;;;;;;;6.75;1.77;;;;;;;10.93;100.00;99568.88;8359573;28;20124;-51
2022/12/23 04:25:57;;;;;;;7.28;1.95;;;;;;;10.98;100.00;99574.63;8359263;28;20107;-53
2022/12/23 04:29:58;;;;;;;4.10;1.77;;;;;;;10.96;100.00;99573.97;8359520;28;20037;-50
2022/12/23 04:33:58;;;;;;;8.23;1.55;;;;;;;10.86;100.00;99583.25;8358246;28;20573;-53
2022/12/23 04:37:59;;;;;;;5.30;1.75;;;;;;;10.79;100.00;99598.41;8358515;28;20090;-52
2022/12/23 04:42:00;;;;;;;9.50;2.10;;;;;;;10.76;100.00;99596.88;8359241;28;20029;-54
2022/12/23 04:46:00;;;;;;;3.80;1.52;;;;;;;10.82;100.00;99598.94;8358476;28;20619;-53
2022/12/23 04:50:01;;;;;;;6.57;1.75;;;;;;;10.86;100.00;99592.16;8358860;28;20456;-53
2022/12/23 04:54:02;;;;;;;5.82;1.60;;;;;;;10.84;100.00;99594.22;8359257;28;20045;-50
2022/12/23 04:58:02;;;;;;;8.27;1.98;;;;;;;10.85;100.00;99606.72;8316473;28;20033;-51
2022/12/23 05:02:03;;;;;;;7.43;1.95;;;;;;;10.86;100.00;99597.59;8322705;28;20546;-50
2022/12/23 05:06:04;;;;;;;4.80;2.22;;;;;;;10.93;100.00;99608.59;8312329;28;20037;-51
2022/12/23 05:10:05;;;;;;;5.15;2.13;;;;;;;10.96;100.00;99608.25;8315417;28;20064;-50
2022/12/23 05:14:09;;;;;;;5.50;1.40;;;;;;;11.00;100.00;99599.66;8307241;28;20045;-53
2022/12/23 05:18:11;;;;;;;4.03;1.50;;;;;;;11.05;100.00;99601.88;8301564;28;20037;-54
2022/12/23 05:22:11;;;;;;;7.43;2.17;;;;;;;11.12;100.00;99608.28;8313183;28;20037;-50
2022/12/23 05:26:12;;;;;;;6.60;2.03;;;;;;;11.16;100.00;99613.22;8291369;28;20087;-54
2022/12/23 05:30:13;;;;;;;9.80;2.08;;;;;;;11.17;100.00;99616.78;8318023;28;20419;-50
2022/12/23 05:34:13;;;;;;;10.82;2.72;;;;;;;11.19;100.00;99615.56;8321549;28;20412;-54
2022/12/23 05:38:14;;;;;;;9.15;2.35;;;;;;;11.20;100.00;99616.44;8304534;28;20479;-49
2022/12/23 05:42:18;;;;;;;8.60;2.30;;;;;;;11.17;100.00;99633.00;8302273;28;20037;-50
2022/12/23 05:46:19;;;;;;;11.97;2.73;;;;;;;11.10;100.00;99638.22;8321656;28;20037;-50
2022/12/23 05:50:20;;;;;;;8.52;2.25;;;;;;;11.09;100.00;99650.06;8303685;28;20052;-50
2022/12/23 05:54:22;;;;;;;13.80;2.30;;;;;;;11.02;100.00;99657.16;8340077;28;20478;-51
2022/12/23 05:58:24;;;;;;;8.85;2.60;;;;;;;10.99;100.00;99649.34;8333362;28;20045;-50
2022/12/23 06:02:24;;;;;;;6.30;2.00;;;;;;;10.96;100.00;99657.81;8322905;28;20037;-51
2022/12/23 06:06:25;;;;;;;9.60;2.67;;;;;;;10.94;100.00;99670.63;8321392;28;20041;-49
2022/12/23 06:10:25;;;;;;;6.28;2.17;;;;;;;10.94;100.00;99665.22;8334928;28;20117;-52
2022/12/23 06:14:26;;;;;;;6.38;2.33;;;;;;;10.95;100.00;99650.69;8342570;28;20049;-51
2022/12/23 06:18:26;;;;;;;6.57;2.20;;;;;;;10.95;100.00;99645.25;8355831;28;20032;-53
2022/12/23 06:22:27;;;;;;;6.78;3.22;;;;;;;10.96;100.00;99651.53;8355464;28;20033;-50
2022/12/23 06:26:27;;;;;;;9.95;3.25;;;;;;;10.96;100.00;99652.41;8353662;28;20045;-54
2022/12/23 06:30:28;;;;;;;10.10;3.03;;;;;;;10.89;100.00;99645.91;8350205;28;20506;-52
2022/12/23 06:34:29;;;;;;;7.30;3.50;;;;;;;10.86;100.00;99646.25;8344597;28;20594;-50
2022/12/23 06:38:30;;;;;;;8.63;4.47;;;;;;;10.85;100.00;99655.38;8353938;28;20043;-50
2022/12/23 06:42:30;;;;;;;10.07;4.45;;;;;;;10.81;100.00;99645.91;8355495;28;20037;-53
2022/12/23 06:46:31;;;;;;;10.52;4.38;;;;;;;10.72;100.00;99638.78;8344715;28;20045;-53
2022/12/23 06:50:32;;;;;;;12.85;5.45;;;;;;;10.67;100.00;99630.31;8321495;28;20033;-52
2022/12/23 06:54:32;;;;;;;17.70;5.47;;;;;;;10.69;100.00;99628.28;8326039;28;20517;-54
2022/12/23 06:58:33;;;;;;;13.38;5.72;;;;;;;10.70;100.00;99623.75;8347222;28;20273;-51
2022/12/23 07:02:33;;;;;;;13.10;5.47;;;;;;;10.64;100.00;99646.84;8352208;28;20033;-54
2022/12/23 07:06:34;;;;;;;12.15;5.55;;;;;;;10.53;100.00;99654.41;8351154;28;20067;-53
2022/12/23 07:10:34;;;;;;;10.25;5.25;;;;;;;10.52;100.00;99675.16;8351220;28;20048;-51
2022/12/23 07:14:35;;;;;;;9.20;5.82;;;;;;;10.53;100.00;99687.69;8352662;28;20399;-51
2022/12/23 07:18:35;;;;;;;8.60;6.20;;;;;;;10.53;100.00;99693.09;8352954;28;20133;-52
2022/12/23 07:22:36;;;;;;;42.97;16.55;;;;;;;10.58;100.00;99695.31;8353582;28;20163;-52
2022/12/23 07:26:36;;;;;;;40.45;22.08;;;;;;;10.63;100.00;99691.09;8353309;28;20033;-52
2022/12/23 07:30:37;;;;;;;18.50;7.90;;;;;;;10.62;100.00;99697.53;8344706;28;20041;-52
2022/12/23 07:34:38;;;;;;;10.55;4.35;;;;;;;10.67;100.00;99710.56;8324275;28;20038;-51
2022/12/23 07:38:38;;;;;;;10.10;4.40;;;;;;;10.69;100.00;99709.38;8326996;28;20041;-53
2022/12/23 07:42:56;;;;;;;13.65;6.95;;;;;;;10.70;100.00;99699.44;8344246;28;20060;-52
2022/12/23 07:46:57;;;;;;;19.75;9.30;;;;;;;10.66;100.00;99682.69;8358555;28;20509;-54
2022/12/23 07:51:01;;;;;;;19.98;11.02;;;;;;;10.67;100.00;99688.94;8358311;28;20406;-53
2022/12/23 07:55:03;;;;;;;26.70;13.63;;;;;;;10.64;100.00;99690.09;8356685;28;20060;-52
2022/12/23 07:59:03;;;;;;;27.48;14.65;;;;;;;10.68;100.00;99707.69;8358101;28;20025;-51
2022/12/23 08:03:04;;;;;;;21.33;12.55;;;;;;;10.70;100.00;99711.06;8359815;28;20127;-52
2022/12/23 08:07:04;;;;;;;22.00;11.80;;;;;;;10.72;100.00;99692.84;8380676;28;20059;-53
2022/12/23 08:11:08;;;;;;;21.45;8.32;;;;;;;10.70;100.00;99684.03;8358724;28;20041;-50
2022/12/23 08:15:09;;;;;;;23.90;11.40;;;;;;;10.73;100.00;99681.00;8357162;28;20041;-51
2022/12/23 08:19:09;;;;;;;35.90;13.52;;;;;;;10.68;100.00;99683.38;8379104;28;20032;-51
2022/12/23 08:23:10;;;;;;;26.55;13.10;;;;;;;10.65;100.00;99683.69;8358455;28;20102;-50
2022/12/23 08:27:11;;;;;;;26.55;11.40;;;;;;;10.67;100.00;99678.94;8347920;28;20042;-50
2022/12/23 08:31:15;;;;;;;10.82;6.30;;;;;;;10.70;100.00;99678.63;8339737;28;20064;-50
2022/12/23 08:35:15;;;;;;;7.65;4.32;;;;;;;10.71;100.00;99682.19;8332382;28;20037;-51
2022/12/23 08:39:17;;;;;;;7.90;4.18;;;;;;;10.73;100.00;99691.81;8344567;28;20033;-52
2022/12/23 08:43:17;;;;;;;6.43;4.28;;;;;;;10.72;100.00;99690.13;8357017;28;20040;-52
2022/12/23 08:47:18;;;;;;;8.13;3.50;;;;;;;10.74;100.00;99682.69;8347349;28;20037;-51
2022/12/23 08:51:20;;;;;;;7.85;3.60;;;;;;;10.73;100.00;99672.06;8324146;28;20045;-52
2022/12/23 08:55:20;;;;;;;5.80;3.22;;;;;;;10.72;100.00;99671.22;8323475;28;20116;-53
2022/12/23 08:59:21;;;;;;;5.47;3.22;;;;;;;10.74;100.00;99679.16;8342347;28;20098;-51
2022/12/23 09:03:21;;;;;;;8.05;3.70;;;;;;;10.74;100.00;99671.88;8351724;28;20214;-50
2022/12/23 09:07:22;;;;;;;9.77;2.70;;;;;;;10.76;100.00;99667.16;8353537;28;20578;-52
2022/12/23 09:11:24;;;;;;;11.68;6.45;;;;;;;10.82;100.00;99676.47;8356451;28;20040;-49
2022/12/23 09:15:25;;;;;;;16.80;7.25;;;;;;;10.76;100.00;99667.16;8354785;28;20037;-50
2022/12/23 09:19:26;;;;;;;20.65;9.15;;;;;;;10.76;100.00;99650.09;8348230;28;20029;-53
2022/12/23 09:23:26;;;;;;;13.48;4.90;;;;;;;10.75;100.00;99648.41;8328057;28;20040;-52
2022/12/23 09:27:27;;;;;;;11.02;4.03;;;;;;;10.70;100.00;99651.59;8325306;28;20033;-54
2022/12/23 09:31:28;;;;;;;6.07;3.72;;;;;;;10.70;100.00;99658.88;8353735;28;21171;-53
2022/12/23 09:35:28;;;;;;;5.55;3.42;;;;;;;10.71;100.00;99647.06;8351368;28;20144;-52
2022/12/23 09:39:29;;;;;;;12.48;4.25;;;;;;;10.71;100.00;99633.53;8355684;28;20048;-53
2022/12/23 09:43:47;;;;;;;9.93;4.40;;;;;;;10.70;100.00;99624.56;8339825;28;20526;-53
2022/12/23 09:47:49;;;;;;;8.55;4.35;;;;;;;10.65;100.00;99616.13;8321802;28;20053;-50
2022/12/23 09:51:52;;;;;;;12.82;6.57;;;;;;;10.60;100.00;99618.47;8354562;28;20525;-50
2022/12/23 09:55:59;;;;;;;8.87;5.83;;;;;;;10.55;100.00;99620.78;8358212;28;20127;-53
2022/12/23 10:00:15;;;;;;;10.32;6.03;;;;;;;10.54;100.00;99612.84;8345023;28;20279;-50
2022/12/23 10:04:36;;;;;;;10.20;6.10;;;;;;;10.53;100.00;99606.63;8343768;28;20048;-49
2022/12/23 10:08:40;;;;;;;11.57;6.32;;;;;;;10.50;100.00;99585.31;8355441;28;20041;-50
2022/12/23 10:12:46;;;;;;;11.02;6.53;;;;;;;10.49;100.00;99572.78;8329691;28;20133;-53
2022/12/23 10:16:54;;;;;;;9.95;5.75;;;;;;;10.49;100.00;99578.19;8326790;28;20479;-50
2022/12/23 10:21:02;;;;;;;16.02;6.45;;;;;;;10.45;100.00;99560.63;8358823;28;20432;-53
2022/12/23 10:25:13;;;;;;;9.27;5.30;;;;;;;10.42;100.00;99560.97;8376978;28;20094;-54
2022/12/23 10:29:18;;;;;;;12.23;5.53;;;;;;;10.45;100.00;99559.78;8344590;28;20037;-53
2022/12/23 10:33:24;;;;;;;8.90;4.60;;;;;;;10.47;100.00;99547.81;8324369;28;20037;-50
2022/12/23 10:37:51;;;;;;;11.48;4.75;;;;;;;10.49;100.00;99534.97;8319194;28;20041;-52
2022/12/23 10:46:39;;;;;;;8.82;3.65;;;;;;;10.63;100.00;99526.25;8419214;27;20398;-50
2022/12/23 10:50:56;;;;;;;6.68;3.05;;;;;;;10.66;100.00;99520.50;8396021;27;20498;-50
2022/12/23 10:54:56;;;;;;;7.75;2.97;;;;;;;10.68;100.00;99510.38;8402108;27;20082;-51
2022/12/23 10:58:59;;;;;;;4.63;2.88;;;;;;;10.72;100.00;99509.03;8396391;27;20033;-55
2022/12/23 11:03:12;;;;;;;10.20;2.90;;;;;;;10.77;100.00;99506.66;8392800;27;20610;-55
2022/12/23 11:07:21;;;;;;;9.73;3.00;;;;;;;10.76;100.00;99504.97;8396842;27;20040;-53
2022/12/23 11:11:22;;;;;;;4.35;2.10;;;;;;;10.72;100.00;99492.81;8396938;28;20033;-51
2022/12/23 11:15:40;;;;;;;12.57;2.75;;;;;;;10.64;100.00;99479.28;8396790;28;21480;-54
2022/12/23 11:19:40;;;;;;;3.58;1.92;;;;;;;10.60;100.00;99482.47;8392581;28;20041;-52
2022/12/23 11:23:41;;;;;;;7.97;2.17;;;;;;;10.60;100.00;99466.25;8395392;27;20328;-55
2022/12/23 11:27:43;;;;;;;6.93;1.73;;;;;;;10.54;100.00;99456.97;8393104;27;20087;-53
2022/12/23 11:31:44;;;;;;;7.88;2.15;;;;;;;10.50;100.00;99442.09;8389536;27;20036;-53
2022/12/23 11:35:44;;;;;;;6.88;2.42;;;;;;;10.51;100.00;99451.03;8376513;27;20041;-55
2022/12/23 11:39:45;;;;;;;4.85;2.10;;;;;;;10.52;100.00;99437.34;8428559;27;20064;-52
2022/12/23 11:43:57;;;;;;;2.88;1.73;;;;;;;10.51;100.00;99419.47;8426544;27;20345;-51
2022/12/23 11:47:57;;;;;;;4.45;1.88;;;;;;;10.55;100.00;99404.59;8376782;27;20610;-55
2022/12/23 11:56:17;;;;;;;5.07;1.90;;;;;;;10.68;100.00;99355.47;8313074;28;20902;-53
2022/12/23 12:00:22;;;;;;;4.93;1.92;;;;;;;10.72;100.00;99354.09;8298218;28;20422;-51
2022/12/23 12:04:26;;;;;;;4.88;1.80;;;;;;;10.69;100.00;99352.59;8313106;28;20046;-54
2022/12/23 12:08:34;;;;;;;5.10;2.17;;;;;;;10.62;100.00;99348.03;8313262;28;20034;-53
2022/12/23 12:12:35;;;;;;;8.98;3.25;;;;;;;10.58;100.00;99339.41;8298430;28;20392;-53
2022/12/23 12:16:50;;;;;;;5.95;3.63;;;;;;;10.53;100.00;99324.72;8306142;28;20061;-52
2022/12/23 12:20:57;;;;;;;9.10;5.22;;;;;;;10.51;100.00;99315.94;8305288;28;20606;-51
2022/12/23 12:25:05;;;;;;;16.98;6.47;;;;;;;10.48;100.00;99287.41;8313275;28;20129;-54
2022/12/23 12:29:19;;;;;;;15.05;5.47;;;;;;;10.54;100.00;99292.13;8314081;28;20472;-51
2022/12/23 12:33:32;;;;;;;7.88;4.55;;;;;;;10.55;100.00;99296.50;8290393;28;20044;-52
2022/12/23 12:41:59;;;;;;;8.50;4.28;;;;;;;10.57;100.00;99243.16;8331825;28;20405;-52
2022/12/23 12:46:40;;;;;;;9.48;4.55;;;;;;;10.59;100.00;99216.81;8247252;28;20527;-54
2022/12/23 12:50:58;;;;;;;9.10;4.00;;;;;;;10.58;100.00;99209.69;8257345;28;20381;-55
2022/12/23 12:55:05;;;;;;;6.68;3.17;;;;;;;10.58;100.00;99242.13;8248540;28;20042;-52
2022/12/23 12:59:14;;;;;;;3.28;1.67;;;;;;;10.62;100.00;99205.66;8285423;28;20046;-52
2022/12/23 13:03:51;;;;;;;4.88;2.15;;;;;;;10.63;100.00;99238.91;8272024;28;20085;-53
2022/12/23 13:08:22;;;;;;;4.32;1.65;;;;;;;10.63;100.00;99228.94;8270118;28;20038;-55
2022/12/23 13:17:37;;;;;;;3.85;1.98;;;;;;;10.61;100.00;99201.25;8413157;27;20385;-55
2022/12/23 13:22:02;;;;;;;4.63;2.60;;;;;;;10.65;100.00;99191.78;8412904;28;20043;-53
2022/12/23 13:26:12;;;;;;;6.72;2.55;;;;;;;10.68;100.00;99177.94;8411705;28;20375;-54
2022/12/23 13:30:17;;;;;;;4.97;2.45;;;;;;;10.71;100.00;99169.47;8391466;28;20060;-55
2022/12/23 13:34:35;;;;;;;5.75;2.40;;;;;;;10.72;100.00;99162.19;8406482;28;20390;-55
2022/12/23 13:38:50;;;;;;;6.90;2.03;;;;;;;10.73;100.00;99143.09;8365846;28;20045;-53
2022/12/23 13:42:58;;;;;;;5.63;2.20;;;;;;;10.75;100.00;99138.38;8379225;28;20402;-52
2022/12/23 13:47:18;;;;;;;7.75;2.45;;;;;;;10.74;100.00;99128.56;8377520;28;20021;-55
2022/12/23 13:51:32;;;;;;;5.82;2.30;;;;;;;10.75;100.00;99121.28;8378406;28;20127;-52
2022/12/23 14:00:00;;;;;;;4.90;2.05;;;;;;;10.85;100.00;99109.25;8378077;27;20816;-54
2022/12/23 14:04:41;;;;;;;2.85;2.03;;;;;;;10.85;100.00;99103.84;8381762;27;20033;-55
2022/12/23 14:08:42;;;;;;;5.93;2.30;;;;;;;10.84;100.00;99101.31;8355107;28;20049;-54
2022/12/23 14:12:42;;;;;;;4.10;2.55;;;;;;;10.83;100.00;99086.94;8364425;28;20114;-51
2022/12/23 14:17:15;;;;;;;3.95;2.55;;;;;;;10.86;100.00;99102.00;8353447;28;20041;-55
2022/12/23 14:21:42;;;;;;;7.15;2.63;;;;;;;10.89;100.00;99078.13;8368708;28;20055;-55
2022/12/23 14:26:18;;;;;;;3.65;2.17;;;;;;;10.94;100.00;99091.97;8369459;28;20049;-55
2022/12/23 14:30:44;;;;;;;6.25;2.65;;;;;;;10.91;100.00;99086.91;8382408;28;20120;-52
2022/12/23 14:35:12;;;;;;;7.88;2.88;;;;;;;10.84;100.00;99069.72;8375953;28;20033;-55
2022/12/23 14:39:29;;;;;;;6.95;2.72;;;;;;;10.99;100.00;99073.38;8376429;28;20064;-56
2022/12/23 14:43:51;;;;;;;6.22;2.42;;;;;;;11.18;100.00;99075.59;8365044;28;20463;-55
2022/12/23 14:47:52;;;;;;;4.93;2.33;;;;;;;11.21;100.00;99077.09;8374090;28;20064;-54
2022/12/23 14:51:53;;;;;;;7.72;3.05;;;;;;;11.22;100.00;99062.53;8377588;28;20033;-55
2022/12/23 15:00:20;;;;;;;5.70;2.95;;;;;;;12.13;100.00;99063.28;8343150;27;20395;-55
2022/12/23 15:04:27;;;;;;;4.13;1.85;;;;;;;12.13;100.00;99057.88;8356829;28;20049;-52
2022/12/23 15:08:34;;;;;;;1.30;0.88;;;;;;;12.60;100.00;99059.13;8377186;28;20033;-52
2022/12/23 15:12:40;;;;;;;1.25;0.73;;;;;;;13.04;100.00;99048.22;8374666;28;20049;-52
2022/12/23 15:16:43;;;;;;;2.80;0.80;;;;;;;13.27;100.00;99043.47;8372422;28;20241;-53
2022/12/23 15:20:44;;;;;;;1.10;0.63;;;;;;;13.43;100.00;99048.63;8377710;28;20080;-53
2022/12/23 15:24:44;;;;;;;1.65;0.85;;;;;;;13.52;100.00;99052.91;8375038;28;20048;-55
2022/12/23 15:28:45;;;;;;;1.10;0.80;;;;;;;13.68;100.00;99060.78;8369042;28;20045;-55
2022/12/23 15:32:48;;;;;;;2.10;0.70;;;;;;;13.75;100.00;99067.94;8353164;28;20041;-55
2022/12/23 15:36:53;;;;;;;3.08;0.98;;;;;;;13.81;100.00;99069.03;8356864;28;20040;-55
2022/12/23 15:40:59;;;;;;;1.13;0.80;;;;;;;13.88;100.00;99065.31;8377303;28;20045;-55
2022/12/23 15:45:28;;;;;;;1.70;0.90;;;;;;;14.04;100.00;99069.63;8378327;28;20037;-55
2022/12/23 15:49:30;;;;;;;1.90;1.15;;;;;;;14.09;100.00;99086.16;8367953;28;20519;-53
2022/12/23 15:53:34;;;;;;;1.38;0.98;;;;;;;14.19;100.00;99078.53;8344423;28;20159;-55
2022/12/23 15:57:42;;;;;;;1.65;0.70;;;;;;;14.17;100.00;99069.72;8366481;28;20351;-54
2022/12/23 16:01:42;;;;;;;1.15;0.55;;;;;;;14.21;100.00;99070.19;8358168;28;20048;-55
2022/12/23 16:05:43;;;;;;;1.40;0.73;;;;;;;14.22;100.00;99078.13;8369794;28;20040;-53
2022/12/23 16:09:44;;;;;;;1.58;0.70;;;;;;;14.19;100.00;99094.84;8362730;28;20120;-55
2022/12/23 16:13:57;;;;;;;2.22;0.70;;;;;;;14.32;100.00;99094.97;8353291;28;20077;-53
2022/12/23 16:22:36;;;;;;;2.97;0.82;;;;;;;14.13;100.00;99117.38;8347194;27;20399;-53
2022/12/23 16:26:41;;;;;;;2.15;0.70;;;;;;;14.02;100.00;99131.47;8343869;28;20048;-51
2022/12/23 16:30:42;;;;;;;3.72;0.90;;;;;;;14.05;100.00;99136.53;8371599;28;20029;-51
2022/12/23 16:34:48;;;;;;;9.25;1.20;;;;;;;14.13;100.00;99147.28;8378846;28;20048;-51
2022/12/23 16:38:51;;;;;;;5.55;1.40;;;;;;;14.22;100.00;99151.53;8377960;28;20503;-52
2022/12/23 16:42:52;;;;;;;9.88;1.45;;;;;;;14.06;100.00;99162.66;8377275;28;20091;-52
2022/12/23 16:46:52;;;;;;;15.82;1.67;;;;;;;13.97;100.00;99166.56;8377361;28;20041;-51
2022/12/23 16:50:53;;;;;;;10.98;1.80;;;;;;;14.07;100.00;99183.38;8373206;28;20056;-51
2022/12/23 16:54:53;;;;;;;10.15;1.75;;;;;;;14.10;100.00;99193.00;8374665;28;20048;-52
2022/12/23 16:58:55;;;;;;;8.43;2.05;;;;;;;14.14;97.50;99206.00;8361248;28;20057;-53
2022/12/23 17:02:55;;;;;;;12.98;1.92;;;;;;;14.23;96.92;99212.16;8341886;28;20041;-51
2022/12/23 17:06:56;;;;;;;11.05;1.75;;;;;;;14.14;97.85;99210.59;8343248;28;20568;-54
2022/12/23 17:10:56;;;;;;;14.82;2.78;;;;;;;14.09;99.04;99224.78;8377593;28;20062;-51
2022/12/23 17:14:57;;;;;;;11.07;2.50;;;;;;;14.15;99.73;99226.72;8377898;28;20056;-52
2022/12/23 17:18:57;;;;;;;17.98;2.85;;;;;;;14.13;99.24;99231.53;8371297;28;20072;-51
2022/12/23 17:22:59;;;;;;;15.57;2.42;;;;;;;14.11;99.69;99230.88;8324976;28;20073;-54
2022/12/23 17:26:59;;;;;;;11.80;2.38;;;;;;;14.06;100.00;99249.63;8318515;28;20081;-51
2022/12/23 17:31:00;;;;;;;18.17;3.47;;;;;;;14.03;100.00;99249.19;8312142;28;20056;-52
2022/12/23 17:35:00;;;;;;;22.98;3.28;;;;;;;13.94;100.00;99270.22;8310996;28;20045;-51
2022/12/23 17:39:01;;;;;;;12.32;2.40;;;;;;;13.85;100.00;99265.94;8308746;28;20071;-54
2022/12/23 17:43:01;;;;;;;18.95;2.97;;;;;;;13.77;100.00;99268.75;8314314;28;20491;-53
2022/12/23 17:47:09;;;;;;;14.05;2.17;;;;;;;13.64;100.00;99266.69;8309613;28;20052;-51
2022/12/23 17:51:14;;;;;;;15.30;2.95;;;;;;;13.54;100.00;99254.44;8291084;28;20102;-51
2022/12/23 17:55:17;;;;;;;;;;;;;;;13.43;100.00;99261.25;8291556;28;20081;-51
2022/12/23 17:59:18;;;;;;;27.02;4.35;;;;;;;13.41;100.00;99257.00;8323127;28;20336;-51
2022/12/23 18:03:22;;;;;;;21.23;4.10;;;;;;;13.50;99.59;99274.88;8353002;28;20394;-50
2022/12/23 18:07:23;;;;;;;26.23;4.05;;;;;;;13.53;99.09;99279.94;8346337;28;20045;-50
2022/12/23 18:11:35;;;;;;;23.83;4.10;;;;;;;13.64;98.37;99285.72;8366054;28;20083;-50
2022/12/23 18:15:39;;;;;;;28.45;4.20;;;;;;;13.70;97.75;99295.81;8324446;28;20029;-52
2022/12/23 18:19:39;;;;;;;18.60;3.30;;;;;;;13.70;98.22;99301.25;8348758;28;20422;-54
2022/12/23 18:23:40;;;;;;;16.98;3.08;;;;;;;13.75;96.32;99300.69;8350472;28;20041;-51
2022/12/23 18:27:40;;;;;;;19.05;3.22;;;;;;;13.80;96.46;99306.41;8338108;28;20136;-53
2022/12/23 18:31:47;;;;;;;21.33;3.70;;;;;;;13.74;97.55;99307.16;8345820;28;20067;-51
2022/12/23 18:35:48;;;;;;;16.67;3.20;;;;;;;13.62;97.94;99305.97;8340156;28;20569;-51
2022/12/23 18:39:49;;;;;;;27.15;5.40;;;;;;;13.53;97.18;99321.53;8353087;28;20037;-51
2022/12/23 18:43:50;;;;;;;28.58;4.25;;;;;;;13.42;98.29;99323.88;8329496;28;20068;-51
2022/12/23 18:47:50;;;;;;;20.63;3.95;;;;;;;13.39;98.51;99324.25;8349861;28;20055;-51
2022/12/23 18:51:51;;;;;;;20.83;3.08;;;;;;;13.33;98.86;99336.66;8351361;28;20055;-51
2022/12/23 18:55:53;;;;;;;21.90;3.03;;;;;;;13.35;98.02;99336.50;8336921;28;20466;-51
2022/12/23 18:59:53;;;;;;;20.50;3.28;;;;;;;13.27;98.00;99332.00;8337714;28;20381;-54
2022/12/23 19:03:54;;;;;;;26.42;4.13;;;;;;;13.34;96.62;99326.66;8327923;28;20140;-51
2022/12/23 19:07:56;;;;;;;26.13;3.47;;;;;;;13.27;97.68;99336.59;8317633;28;20545;-54
2022/12/23 19:11:57;;;;;;;14.80;3.20;;;;;;;13.33;98.28;99336.66;8321101;28;20038;-51
2022/12/23 19:15:58;;;;;;;18.30;3.55;;;;;;;13.37;98.11;99348.00;8317948;28;20037;-51
2022/12/23 19:19:59;;;;;;;20.08;2.95;;;;;;;13.35;98.29;99347.34;8320929;28;20113;-51
2022/12/23 19:24:00;;;;;;;17.60;3.53;;;;;;;13.42;98.27;99342.88;8312032;28;20244;-50
2022/12/23 19:28:01;;;;;;;20.65;3.75;;;;;;;13.38;98.59;99350.53;8319889;28;20554;-51
2022/12/23 19:32:01;;;;;;;19.65;3.35;;;;;;;13.32;98.93;99362.16;8296326;28;20466;-51
2022/12/23 19:36:08;;;;;;;19.50;3.05;;;;;;;13.38;98.49;99349.69;8292097;28;20496;-51
2022/12/23 19:40:09;;;;;;;22.00;3.40;;;;;;;13.34;99.49;99372.81;8301781;28;20034;-50
2022/12/23 19:44:10;;;;;;;15.20;2.75;;;;;;;13.27;100.00;99385.44;8316008;28;20033;-51
2022/12/23 19:48:10;;;;;;;23.88;3.20;;;;;;;13.17;100.00;99398.41;8318403;28;20253;-51
2022/12/23 19:52:11;;;;;;;17.27;3.42;;;;;;;13.29;100.00;99426.81;8339127;28;20120;-51
2022/12/23 19:56:15;;;;;;;13.55;3.15;;;;;;;13.30;100.00;99428.50;8348584;28;20036;-52